createdAt,value
2023-02-01T00:00:46.275Z,4.30
2023-02-01T00:03:15.684Z,4.63
2023-02-01T00:05:43.436Z,4.60
2023-02-01T00:08:11.152Z,4.00
2023-02-01T00:10:40.164Z,4.37
2023-02-01T00:13:12.392Z,4.43
2023-02-01T00:15:40.109Z,4.97
2023-02-01T00:18:08.142Z,4.50
2023-02-01T00:20:36.156Z,4.90
2023-02-01T00:23:03.836Z,4.40
2023-02-01T00:25:31.669Z,4.50
2023-02-01T00:28:01.736Z,4.10
2023-02-01T00:30:29.389Z,4.47
2023-02-01T00:32:57.034Z,4.50
2023-02-01T00:35:24.679Z,4.20
2023-02-01T00:37:52.349Z,4.13
2023-02-01T00:40:20.664Z,3.90
2023-02-01T00:42:48.513Z,3.77
2023-02-01T00:45:17.767Z,4.50
2023-02-01T00:47:45.390Z,4.17
2023-02-01T00:50:13.239Z,3.87
2023-02-01T00:52:40.852Z,4.23
2023-02-01T00:55:09.187Z,3.53
2023-02-01T00:57:36.860Z,3.63
2023-02-01T01:00:05.405Z,4.40
2023-02-01T01:02:34.414Z,4.70
2023-02-01T01:05:02.274Z,3.87
2023-02-01T01:07:30.229Z,3.67
2023-02-01T01:09:57.886Z,4.23
2023-02-01T01:12:25.622Z,4.63
2023-02-01T01:14:53.267Z,4.00
2023-02-01T01:17:20.960Z,4.03
2023-02-01T01:19:49.997Z,4.17
2023-02-01T01:22:18.948Z,3.93
2023-02-01T01:24:46.686Z,4.37
2023-02-01T01:27:15.027Z,4.03
2023-02-01T01:29:42.709Z,4.63
2023-02-01T01:32:10.387Z,3.83
2023-02-01T01:34:38.127Z,4.37
2023-02-01T01:37:07.163Z,5.20
2023-02-01T01:39:34.850Z,3.80
2023-02-01T01:42:02.576Z,4.50
2023-02-01T01:44:59.683Z,3.70
2023-02-01T01:47:29.173Z,4.67
2023-02-01T01:49:57.399Z,4.37
2023-02-01T01:52:26.715Z,4.17
2023-02-01T01:54:55.722Z,4.10
2023-02-01T01:57:28.039Z,3.53
2023-02-01T02:00:02.554Z,3.70
2023-02-01T02:02:31.224Z,4.10
2023-02-01T02:04:59.025Z,3.90
2023-02-01T02:07:32.216Z,4.20
2023-02-01T02:10:01.415Z,3.23
2023-02-01T02:12:29.740Z,3.37
2023-02-01T02:14:57.762Z,2.90
2023-02-01T02:17:37.146Z,3.33
2023-02-01T02:20:30.500Z,2.83
2023-02-01T02:23:31.919Z,3.40
2023-02-01T02:26:29.361Z,2.83
2023-02-01T02:29:33.268Z,3.27
2023-02-01T02:32:34.320Z,2.97
2023-02-01T02:35:10.007Z,2.90
2023-02-01T02:37:43.045Z,3.60
2023-02-01T02:40:17.871Z,3.33
2023-02-01T02:43:10.386Z,3.50
2023-02-01T02:46:01.652Z,4.13
2023-02-01T02:48:32.673Z,4.23
2023-02-01T02:51:24.138Z,4.20
2023-02-01T02:54:17.664Z,4.30
2023-02-01T02:57:02.920Z,3.80
2023-02-01T02:59:50.308Z,4.53
2023-02-01T03:02:36.879Z,5.13
2023-02-01T03:05:04.745Z,5.20
2023-02-01T03:07:59.128Z,5.17
2023-02-01T03:10:35.396Z,4.83
2023-02-01T03:13:07.321Z,4.80
2023-02-01T03:15:40.892Z,4.30
2023-02-01T03:18:17.079Z,4.27
2023-02-01T03:20:48.726Z,3.93
2023-02-01T03:23:21.527Z,4.07
2023-02-01T03:25:52.549Z,4.87
2023-02-01T03:28:24.812Z,4.87
2023-02-01T03:30:52.558Z,4.87
2023-02-01T03:33:25.254Z,4.33
2023-02-01T03:36:01.256Z,4.80
2023-02-01T03:38:34.864Z,5.40
2023-02-01T03:41:11.007Z,5.17
2023-02-01T03:43:48.556Z,5.30
2023-02-01T03:46:23.085Z,5.07
2023-02-01T03:48:53.015Z,5.60
2023-02-01T03:51:22.490Z,4.67
2023-02-01T03:53:52.096Z,5.63
2023-02-01T03:56:23.413Z,5.47
2023-02-01T03:59:00.283Z,5.00
2023-02-01T04:01:30.472Z,5.13
2023-02-01T04:03:58.775Z,4.63
2023-02-01T04:06:26.823Z,5.53
2023-02-01T04:08:55.934Z,5.07
2023-02-01T04:11:23.612Z,5.00
2023-02-01T04:13:51.265Z,5.40
2023-02-01T04:16:18.925Z,5.70
2023-02-01T04:18:46.548Z,4.60
2023-02-01T04:21:14.132Z,5.37
2023-02-01T04:23:41.757Z,4.87
2023-02-01T04:26:10.760Z,5.90
2023-02-01T04:28:38.376Z,4.90
2023-02-01T04:31:06.813Z,4.70
2023-02-01T04:33:34.517Z,4.40
2023-02-01T04:36:02.120Z,4.83
2023-02-01T04:38:30.350Z,5.00
2023-02-01T04:40:57.991Z,5.40
2023-02-01T04:43:27.235Z,5.70
2023-02-01T04:45:55.416Z,6.50
2023-02-01T04:48:24.964Z,5.50
2023-02-01T04:50:52.806Z,5.40
2023-02-01T04:53:20.539Z,5.40
2023-02-01T04:55:50.977Z,6.20
2023-02-01T04:58:18.613Z,5.60
2023-02-01T05:00:47.607Z,6.37
2023-02-01T05:03:15.307Z,5.23
2023-02-01T05:05:43.048Z,5.30
2023-02-01T05:08:10.724Z,5.07
2023-02-01T05:10:38.357Z,5.63
2023-02-01T05:13:23.695Z,6.17
2023-02-01T05:15:53.664Z,6.03
2023-02-01T05:18:21.366Z,5.83
2023-02-01T05:20:49.055Z,6.73
2023-02-01T05:23:16.688Z,6.27
2023-02-01T05:25:44.535Z,5.77
2023-02-01T05:28:12.292Z,6.27
2023-02-01T05:30:42.274Z,5.90
2023-02-01T05:33:11.466Z,6.43
2023-02-01T05:35:39.109Z,6.23
2023-02-01T05:38:06.735Z,6.50
2023-02-01T05:40:34.358Z,6.43
2023-02-01T05:43:02.029Z,6.17
2023-02-01T05:45:29.714Z,6.30
2023-02-01T05:47:57.381Z,6.10
2023-02-01T05:50:26.375Z,7.13
2023-02-01T05:52:53.973Z,6.17
2023-02-01T05:55:21.694Z,6.27
2023-02-01T05:57:49.348Z,6.20
2023-02-01T06:00:17.615Z,4.53
2023-02-01T06:02:45.377Z,5.03
2023-02-01T06:05:13.037Z,4.30
2023-02-01T06:07:42.056Z,3.40
2023-02-01T06:10:11.161Z,3.00
2023-02-01T06:12:38.942Z,2.30
2023-02-01T06:15:07.822Z,2.77
2023-02-01T06:17:35.423Z,2.53
2023-02-01T06:20:03.055Z,2.17
2023-02-01T06:22:30.750Z,2.20
2023-02-01T06:25:00.241Z,4.17
2023-02-01T06:27:27.839Z,3.20
2023-02-01T06:29:56.079Z,4.07
2023-02-01T06:32:23.900Z,3.47
2023-02-01T06:34:53.401Z,3.07
2023-02-01T06:37:23.234Z,2.47
2023-02-01T06:39:51.021Z,3.10
2023-02-01T06:42:20.052Z,2.67
2023-02-01T06:44:47.780Z,2.47
2023-02-01T06:47:15.336Z,2.20
2023-02-01T06:49:42.971Z,2.00
2023-02-01T06:52:10.864Z,2.03
2023-02-01T06:54:38.561Z,1.63
2023-02-01T06:57:06.347Z,1.90
2023-02-01T06:59:37.883Z,1.83
2023-02-01T07:02:05.765Z,1.80
2023-02-01T07:04:33.604Z,1.90
2023-02-01T07:07:01.306Z,2.10
2023-02-01T07:09:29.013Z,1.93
2023-02-01T07:11:56.678Z,1.80
2023-02-01T07:14:24.385Z,2.30
2023-02-01T07:16:53.489Z,2.10
2023-02-01T07:19:21.191Z,2.07
2023-02-01T07:21:48.862Z,1.90
2023-02-01T07:24:16.653Z,1.90
2023-02-01T07:26:44.411Z,1.90
2023-02-01T07:29:12.053Z,1.83
2023-02-01T07:31:39.802Z,1.20
2023-02-01T07:34:08.875Z,1.53
2023-02-01T07:36:37.251Z,0.90
2023-02-01T07:39:04.988Z,1.17
2023-02-01T07:41:32.717Z,1.20
2023-02-01T07:44:00.375Z,0.90
2023-02-01T07:46:28.185Z,1.10
2023-02-01T07:48:55.873Z,1.07
2023-02-01T07:51:24.854Z,1.33
2023-02-01T07:53:53.726Z,0.97
2023-02-01T07:56:23.901Z,1.60
2023-02-01T07:58:53.178Z,1.47
2023-02-01T08:01:21.868Z,1.70
2023-02-01T08:03:50.479Z,1.30
2023-02-01T08:06:18.238Z,1.13
2023-02-01T08:08:47.758Z,1.43
2023-02-01T08:11:16.221Z,1.63
2023-02-01T08:13:43.993Z,1.40
2023-02-01T08:16:14.310Z,1.20
2023-02-01T08:18:42.625Z,1.40
2023-02-01T08:21:12.578Z,1.23
2023-02-01T08:23:42.097Z,1.10
2023-02-01T08:26:13.512Z,1.30
2023-02-01T08:28:42.710Z,1.13
2023-02-01T08:31:12.590Z,1.10
2023-02-01T08:33:40.245Z,1.50
2023-02-01T08:36:09.900Z,1.03
2023-02-01T08:38:38.363Z,1.10
2023-02-01T08:41:07.852Z,1.10
2023-02-01T08:43:37.423Z,1.20
2023-02-01T08:46:06.089Z,1.37
2023-02-01T08:48:33.993Z,1.00
2023-02-01T08:51:03.749Z,1.30
2023-02-01T08:53:31.519Z,1.03
2023-02-01T08:55:59.310Z,1.30
2023-02-01T08:58:27.058Z,1.47
2023-02-01T09:00:56.101Z,1.20
2023-02-01T09:03:24.002Z,1.70
2023-02-01T09:05:54.076Z,1.30
2023-02-01T09:08:22.319Z,1.43
2023-02-01T09:10:50.003Z,1.57
2023-02-01T09:13:17.749Z,1.80
2023-02-01T09:15:45.462Z,1.50
2023-02-01T09:18:14.531Z,1.23
2023-02-01T09:20:42.157Z,1.57
2023-02-01T09:23:09.812Z,1.63
2023-02-01T09:25:39.085Z,1.10
2023-02-01T09:28:07.229Z,1.27
2023-02-01T09:30:35.660Z,1.63
2023-02-01T09:33:03.467Z,1.23
2023-02-01T09:35:32.631Z,1.40
2023-02-01T09:38:00.281Z,0.90
2023-02-01T09:40:28.407Z,0.80
2023-02-01T09:43:10.905Z,1.00
2023-02-01T09:45:47.394Z,1.03
2023-02-01T09:48:18.929Z,0.80
2023-02-01T09:50:52.528Z,0.87
2023-02-01T09:53:25.414Z,1.17
2023-02-01T09:55:57.387Z,1.10
2023-02-01T09:58:33.116Z,0.80
2023-02-01T10:01:04.011Z,1.00
2023-02-01T10:03:34.808Z,1.03
2023-02-01T10:06:31.761Z,0.90
2023-02-01T10:09:49.939Z,1.20
2023-02-01T10:12:55.771Z,0.90
2023-02-01T10:15:32.798Z,1.30
2023-02-01T10:18:18.325Z,1.10
2023-02-01T10:21:07.171Z,1.53
2023-02-01T10:24:16.784Z,1.90
2023-02-01T10:26:49.318Z,1.67
2023-02-01T10:29:20.674Z,4.90
2023-02-01T10:31:48.807Z,3.47
2023-02-01T10:34:22.999Z,2.87
2023-02-01T10:36:57.617Z,2.53
2023-02-01T10:39:26.787Z,2.37
2023-02-01T10:41:56.116Z,2.27
2023-02-01T10:44:27.191Z,2.30
2023-02-01T10:46:54.882Z,2.03
2023-02-01T10:49:28.507Z,2.00
2023-02-01T10:52:00.672Z,2.37
2023-02-01T10:54:39.207Z,2.13
2023-02-01T10:57:10.196Z,2.73
2023-02-01T10:59:39.314Z,2.30
2023-02-01T11:02:18.392Z,2.37
2023-02-01T11:04:46.105Z,1.83
2023-02-01T11:07:21.274Z,2.53
2023-02-01T11:09:55.800Z,2.40
2023-02-01T11:12:29.205Z,1.83
2023-02-01T11:15:02.334Z,2.30
2023-02-01T11:17:35.732Z,1.40
2023-02-01T11:20:07.807Z,1.47
2023-02-01T11:22:35.575Z,1.50
2023-02-01T11:25:11.627Z,2.00
2023-02-01T11:27:49.528Z,1.37
2023-02-01T11:30:33.571Z,1.37
2023-02-01T11:33:04.057Z,1.57
2023-02-01T11:35:34.153Z,1.30
2023-02-01T11:38:02.589Z,1.30
2023-02-01T11:40:37.945Z,1.47
2023-02-01T11:43:12.022Z,1.17
2023-02-01T11:45:39.705Z,1.10
2023-02-01T11:48:15.074Z,2.40
2023-02-01T11:50:56.732Z,1.50
2023-02-01T11:53:40.930Z,1.73
2023-02-01T11:56:21.857Z,1.87
2023-02-01T11:59:07.322Z,1.47
2023-02-01T12:02:01.680Z,2.00
2023-02-01T12:04:58.489Z,1.63
2023-02-01T12:07:36.781Z,2.00
2023-02-01T12:10:21.681Z,1.67
2023-02-01T12:13:01.137Z,1.90
2023-02-01T12:15:48.286Z,3.53
2023-02-01T12:18:47.869Z,1.97
2023-02-01T12:21:36.626Z,1.60
2023-02-01T12:24:30.248Z,1.90
2023-02-01T12:27:10.502Z,1.00
2023-02-01T12:29:56.805Z,1.97
2023-02-01T12:32:38.739Z,1.40
2023-02-01T12:35:47.255Z,1.10
2023-02-01T12:38:29.576Z,1.00
2023-02-01T12:41:17.209Z,1.40
2023-02-01T12:43:49.079Z,1.83
2023-02-01T12:46:23.281Z,2.10
2023-02-01T12:48:58.061Z,1.40
2023-02-01T12:51:31.553Z,1.90
2023-02-01T12:54:04.631Z,1.97
2023-02-01T12:56:37.294Z,1.37
2023-02-01T12:59:10.669Z,1.40
2023-02-01T13:01:46.326Z,1.33
2023-02-01T13:04:21.315Z,1.30
2023-02-01T13:06:53.896Z,1.70
2023-02-01T13:09:27.555Z,1.97
2023-02-01T13:11:59.677Z,1.73
2023-02-01T13:14:34.844Z,1.50
2023-02-01T13:17:07.523Z,1.50
2023-02-01T13:19:44.790Z,1.60
2023-02-01T13:22:18.064Z,1.93
2023-02-01T13:24:49.574Z,1.50
2023-02-01T13:27:19.007Z,1.37
2023-02-01T13:29:55.571Z,1.70
2023-02-01T13:33:50.854Z,1.67
2023-02-01T13:35:44.897Z,1.93
2023-02-01T13:38:41.784Z,2.03
2023-02-01T13:41:27.750Z,2.53
2023-02-01T13:43:59.523Z,2.30
2023-02-01T13:46:28.371Z,1.53
2023-02-01T13:49:01.150Z,2.43
2023-02-01T13:51:39.585Z,1.90
2023-02-01T13:54:07.877Z,1.70
2023-02-01T13:56:43.795Z,1.50
2023-02-01T14:00:00.177Z,1.20
2023-02-01T14:02:53.153Z,1.90
2023-02-01T14:06:01.297Z,2.37
2023-02-01T14:08:44.558Z,1.30
2023-02-01T14:11:36.517Z,1.90
2023-02-01T14:14:47.181Z,1.90
2023-02-01T14:17:42.115Z,1.83
2023-02-01T14:20:54.254Z,2.17
2023-02-01T14:23:25.837Z,1.50
2023-02-01T14:26:10.273Z,1.70
2023-02-01T14:28:42.788Z,1.60
2023-02-01T14:31:41.876Z,1.77
2023-02-01T14:34:23.714Z,1.93
2023-02-01T14:36:57.431Z,1.80
2023-02-01T14:39:53.718Z,1.73
2023-02-01T14:42:28.711Z,1.77
2023-02-01T14:44:59.783Z,1.63
2023-02-01T14:47:33.864Z,2.13
2023-02-01T14:50:14.443Z,2.43
2023-02-01T14:52:46.447Z,2.40
2023-02-01T14:55:19.746Z,1.33
2023-02-01T14:57:52.201Z,1.80
2023-02-01T15:00:23.889Z,1.80
2023-02-01T15:02:54.851Z,1.93
2023-02-01T15:05:31.925Z,1.97
2023-02-01T15:08:05.246Z,2.17
2023-02-01T15:10:42.485Z,1.50
2023-02-01T15:13:21.123Z,1.80
2023-02-01T15:16:02.416Z,1.83
2023-02-01T15:18:30.146Z,2.10
2023-02-01T15:21:09.741Z,1.53
2023-02-01T15:23:51.971Z,2.57
2023-02-01T15:26:33.089Z,1.70
2023-02-01T15:29:00.841Z,2.07
2023-02-01T15:31:37.151Z,2.27
2023-02-01T15:34:05.402Z,1.70
2023-02-01T15:36:33.306Z,2.30
2023-02-01T15:39:32.493Z,1.90
2023-02-01T15:42:12.189Z,2.00
2023-02-01T15:44:42.904Z,1.70
2023-02-01T15:47:17.978Z,2.33
2023-02-01T15:49:49.091Z,2.07
2023-02-01T15:52:25.748Z,1.90
2023-02-01T15:54:56.595Z,1.50
2023-02-01T15:57:31.675Z,1.40
2023-02-01T16:00:02.224Z,1.60
2023-02-01T16:02:36.313Z,1.67
2023-02-01T16:05:05.409Z,1.53
2023-02-01T16:07:34.952Z,1.53
2023-02-01T16:10:18.834Z,1.33
2023-02-01T16:12:49.270Z,1.30
2023-02-01T16:15:17.115Z,2.23
2023-02-01T16:17:46.724Z,2.07
2023-02-01T16:20:14.965Z,1.83
2023-02-01T16:22:42.683Z,1.27
2023-02-01T16:25:10.650Z,1.20
2023-02-01T16:27:38.362Z,1.60
2023-02-01T16:30:10.744Z,1.30
2023-02-01T16:32:40.190Z,1.17
2023-02-01T16:35:19.964Z,1.63
2023-02-01T16:37:47.804Z,1.30
2023-02-01T16:40:16.333Z,1.23
2023-02-01T16:42:44.085Z,1.10
2023-02-01T16:45:13.181Z,1.10
2023-02-01T16:47:47.315Z,1.20
2023-02-01T16:50:23.388Z,1.47
2023-02-01T16:52:51.757Z,1.20
2023-02-01T16:55:22.743Z,1.30
2023-02-01T16:57:50.746Z,1.17
2023-02-01T17:00:25.655Z,1.30
2023-02-01T17:02:54.253Z,1.17
2023-02-01T17:05:23.978Z,1.20
2023-02-01T17:07:53.135Z,1.37
2023-02-01T17:10:34.321Z,1.30
2023-02-01T17:13:02.569Z,1.67
2023-02-01T17:15:37.268Z,1.50
2023-02-01T17:18:05.388Z,1.40
2023-02-01T17:20:33.891Z,1.13
2023-02-01T17:23:02.354Z,1.40
2023-02-01T17:25:31.763Z,1.33
2023-02-01T17:27:59.788Z,1.13
2023-02-01T17:30:27.625Z,1.10
2023-02-01T17:32:57.151Z,1.40
2023-02-01T17:35:28.564Z,1.10
2023-02-01T17:37:56.539Z,1.33
2023-02-01T17:40:24.583Z,2.03
2023-02-01T17:42:52.246Z,1.57
2023-02-01T17:45:27.425Z,1.60
2023-02-01T17:47:56.455Z,1.30
2023-02-01T17:50:28.232Z,1.37
2023-02-01T17:52:56.266Z,1.80
2023-02-01T17:55:26.683Z,1.40
2023-02-01T17:57:54.532Z,1.10
2023-02-01T18:00:23.135Z,1.43
2023-02-01T18:02:50.771Z,1.63
2023-02-01T18:05:25.029Z,1.57
2023-02-01T18:07:52.874Z,1.87
2023-02-01T18:10:20.811Z,1.40
2023-02-01T18:12:48.680Z,1.20
2023-02-01T18:15:19.154Z,1.50
2023-02-01T18:17:47.051Z,1.27
2023-02-01T18:20:16.890Z,1.47
2023-02-01T18:22:48.626Z,1.50
2023-02-01T18:25:20.522Z,1.30
2023-02-01T18:27:48.841Z,2.07
2023-02-01T18:30:17.078Z,1.70
2023-02-01T18:32:45.919Z,1.77
2023-02-01T18:35:18.814Z,1.50
2023-02-01T18:37:48.631Z,1.43
2023-02-01T18:40:18.947Z,1.63
2023-02-01T18:42:46.836Z,1.70
2023-02-01T18:45:29.597Z,1.53
2023-02-01T18:47:57.674Z,1.40
2023-02-01T18:50:25.923Z,1.37
2023-02-01T18:53:00.022Z,1.47
2023-02-01T18:55:29.225Z,1.60
2023-02-01T18:57:56.922Z,2.47
2023-02-01T19:00:25.575Z,1.43
2023-02-01T19:02:53.330Z,1.47
2023-02-01T19:05:21.870Z,1.40
2023-02-01T19:07:49.599Z,1.97
2023-02-01T19:10:22.107Z,1.23
2023-02-01T19:12:50.754Z,1.80
2023-02-01T19:15:19.242Z,1.83
2023-02-01T19:17:50.042Z,1.60
2023-02-01T19:20:19.956Z,1.80
2023-02-01T19:22:48.138Z,1.63
2023-02-01T19:25:20.186Z,1.57
2023-02-01T19:27:49.687Z,1.60
2023-02-01T19:30:18.224Z,1.60
2023-02-01T19:32:46.671Z,1.63
2023-02-01T19:35:16.946Z,1.57
2023-02-01T19:37:44.782Z,2.20
2023-02-01T19:40:15.592Z,1.80
2023-02-01T19:42:43.381Z,1.67
2023-02-01T19:45:12.868Z,1.97
2023-02-01T19:47:40.761Z,1.70
2023-02-01T19:50:11.708Z,1.93
2023-02-01T19:52:39.682Z,2.10
2023-02-01T19:55:07.799Z,2.40
2023-02-01T19:57:36.408Z,1.33
2023-02-01T20:00:05.311Z,1.87
2023-02-01T20:02:33.569Z,1.60
2023-02-01T20:05:01.331Z,1.60
2023-02-01T20:07:29.003Z,1.93
2023-02-01T20:09:56.708Z,1.83
2023-02-01T20:12:24.406Z,1.63
2023-02-01T20:14:52.048Z,1.60
2023-02-01T20:17:19.737Z,1.20
2023-02-01T20:19:48.784Z,1.90
2023-02-01T20:22:16.871Z,1.70
2023-02-01T20:24:44.653Z,2.33
2023-02-01T20:27:13.438Z,1.67
2023-02-01T20:29:42.440Z,1.80
2023-02-01T20:32:10.496Z,1.80
2023-02-01T20:34:38.269Z,1.70
2023-02-01T20:37:07.872Z,2.07
2023-02-01T20:39:35.913Z,2.30
2023-02-01T20:42:05.227Z,2.10
2023-02-01T20:44:35.507Z,2.07
2023-02-01T20:47:05.583Z,1.90
2023-02-01T20:49:34.781Z,1.83
2023-02-01T20:52:02.577Z,1.33
2023-02-01T20:54:31.867Z,1.97
2023-02-01T20:56:59.704Z,1.63
2023-02-01T20:59:27.800Z,1.33
2023-02-01T21:01:59.253Z,1.70
2023-02-01T21:04:29.197Z,2.30
2023-02-01T21:06:57.933Z,1.47
2023-02-01T21:09:25.749Z,1.60
2023-02-01T21:11:55.447Z,2.47
2023-02-01T21:14:23.721Z,1.90
2023-02-01T21:16:52.847Z,1.30
2023-02-01T21:19:22.365Z,1.43
2023-02-01T21:21:50.110Z,1.80
2023-02-01T21:24:18.872Z,2.03
2023-02-01T21:26:46.990Z,1.73
2023-02-01T21:29:17.217Z,2.50
2023-02-01T21:31:44.983Z,2.23
2023-02-01T21:34:12.680Z,1.83
2023-02-01T21:36:40.368Z,2.10
2023-02-01T21:39:10.892Z,2.00
2023-02-01T21:41:57.118Z,1.53
2023-02-01T21:44:26.177Z,2.00
2023-02-01T21:46:55.620Z,1.40
2023-02-01T21:49:25.507Z,2.27
2023-02-01T21:51:53.609Z,1.87
2023-02-01T21:54:21.467Z,2.10
2023-02-01T21:56:49.158Z,1.53
2023-02-01T21:59:16.886Z,2.80
2023-02-01T22:01:46.377Z,1.97
2023-02-01T22:04:14.302Z,1.90
2023-02-01T22:06:45.838Z,2.30
2023-02-01T22:09:17.874Z,1.80
2023-02-01T22:11:45.738Z,1.60
2023-02-01T22:14:14.009Z,1.80
2023-02-01T22:16:42.058Z,1.83
2023-02-01T22:19:12.376Z,2.43
2023-02-01T22:21:42.078Z,1.40
2023-02-01T22:24:11.481Z,2.13
2023-02-01T22:26:39.932Z,1.80
2023-02-01T22:29:08.631Z,2.13
2023-02-01T22:31:36.754Z,1.63
2023-02-01T22:34:04.391Z,1.53
2023-02-01T22:36:33.397Z,1.53
2023-02-01T22:39:01.091Z,1.20
2023-02-01T22:41:28.795Z,2.33
2023-02-01T22:43:56.550Z,2.00
2023-02-01T22:46:26.286Z,2.00
2023-02-01T22:48:54.750Z,1.87
2023-02-01T22:51:24.903Z,1.73
2023-02-01T22:53:56.876Z,2.07
2023-02-01T22:56:26.401Z,3.27
2023-02-01T22:58:58.528Z,1.67
2023-02-01T23:01:26.733Z,1.30
2023-02-01T23:03:58.254Z,1.97
2023-02-01T23:06:26.686Z,1.60
2023-02-01T23:08:57.785Z,2.27
2023-02-01T23:11:26.754Z,1.70
2023-02-01T23:13:55.033Z,1.90
2023-02-01T23:16:23.115Z,1.80
2023-02-01T23:18:51.066Z,1.57
2023-02-01T23:21:21.147Z,1.80
2023-02-01T23:23:49.660Z,1.20
2023-02-01T23:26:19.398Z,1.87
2023-02-01T23:28:47.121Z,1.90
2023-02-01T23:31:15.542Z,1.80
2023-02-01T23:33:46.103Z,1.47
2023-02-01T23:36:16.248Z,1.43
2023-02-01T23:38:44.303Z,1.77
2023-02-01T23:41:13.332Z,1.70
2023-02-01T23:44:01.174Z,1.47
2023-02-01T23:46:32.024Z,1.80
2023-02-01T23:49:00.449Z,1.37
2023-02-01T23:51:28.330Z,1.20
2023-02-01T23:53:56.959Z,1.30
2023-02-01T23:56:26.430Z,1.30
2023-02-01T23:58:56.787Z,1.37
